createdAt,value
2022-10-05T00:07:29.212Z,4.03
2022-10-05T00:17:36.675Z,4.15
2022-10-05T00:27:44.138Z,4.05
2022-10-05T00:37:51.608Z,4.11
2022-10-05T00:47:59.086Z,3.81
2022-10-05T00:58:06.591Z,3.73
2022-10-05T01:08:14.153Z,3.58
2022-10-05T01:18:21.621Z,4.06
2022-10-05T01:28:29.291Z,3.6
2022-10-05T01:38:36.747Z,3.91
2022-10-05T01:48:44.237Z,4.33
2022-10-05T01:58:51.697Z,4.01
2022-10-05T02:08:59.218Z,3.97
2022-10-05T02:19:06.730Z,3.6
2022-10-05T02:29:14.162Z,3.68
2022-10-05T02:39:21.807Z,3.78
2022-10-05T02:49:29.321Z,4.08
2022-10-05T02:59:36.771Z,3.91
2022-10-05T03:09:44.333Z,3.59
2022-10-05T03:19:51.995Z,3.63
2022-10-05T03:29:59.620Z,4.04
2022-10-05T03:40:07.122Z,4.05
2022-10-05T03:50:14.650Z,3.94
2022-10-05T04:00:22.235Z,4.55
2022-10-05T04:10:29.722Z,4.19
2022-10-05T04:20:37.352Z,4.7
2022-10-05T04:30:44.797Z,5.4
2022-10-05T04:40:52.394Z,5.64
2022-10-05T04:51:01.123Z,6.99
2022-10-05T05:01:08.683Z,5.83
2022-10-05T05:11:16.815Z,6.52
2022-10-05T05:21:22.260Z,6.94
2022-10-05T05:31:29.976Z,6.05
2022-10-05T05:41:37.427Z,5.97
2022-10-05T05:51:44.959Z,6.91
2022-10-05T06:01:52.733Z,6.34
2022-10-05T06:12:00.538Z,8.38
2022-10-05T06:22:08.060Z,9.83
2022-10-05T06:32:15.661Z,7.78
2022-10-05T06:42:23.107Z,7.99
2022-10-05T06:52:30.704Z,7.34
2022-10-05T07:02:38.314Z,6.25
2022-10-05T07:12:45.868Z,6.1
2022-10-05T07:22:53.346Z,5.71
2022-10-05T07:33:01.043Z,5.59
2022-10-05T07:43:08.679Z,5.59
2022-10-05T07:53:16.349Z,6.24
2022-10-05T08:03:23.951Z,7.07
2022-10-05T08:13:31.449Z,5.69
2022-10-05T08:23:39.058Z,6.01
2022-10-05T08:33:46.552Z,6.96
2022-10-05T08:43:54.149Z,4.67
2022-10-05T08:54:01.743Z,4.92
2022-10-05T09:04:09.598Z,4.73
2022-10-05T09:14:17.140Z,4.63
2022-10-05T09:24:24.712Z,3.55
2022-10-05T09:34:32.490Z,3.25
2022-10-05T09:44:40.015Z,3.22
2022-10-05T09:54:48.638Z,2.84
2022-10-05T10:04:56.215Z,1.75
2022-10-05T10:35:08.362Z,1.71
2022-10-05T11:25:24.883Z,1.64
2022-10-05T11:35:32.424Z,1.67
2022-10-05T11:45:40.073Z,1.58
2022-10-05T11:55:47.523Z,1.47
2022-10-05T12:05:55.084Z,1.54
2022-10-05T12:26:05.061Z,1.46
2022-10-05T12:36:12.889Z,1.44
2022-10-05T12:46:20.850Z,1.46
2022-10-05T12:56:28.606Z,1.65
2022-10-05T13:06:38.670Z,1.38
2022-10-05T13:16:36.396Z,1.56
2022-10-05T13:26:43.777Z,1.31
2022-10-05T13:36:51.426Z,1.33
2022-10-05T13:46:59.038Z,1.9
2022-10-05T13:57:06.602Z,1.43
2022-10-05T14:07:14.195Z,1.2
2022-10-05T14:17:21.868Z,1.3
2022-10-05T14:27:29.257Z,1.59
2022-10-05T14:37:36.768Z,1.42
2022-10-05T14:47:44.376Z,1.76
2022-10-05T14:57:52.106Z,1.8
2022-10-05T15:07:59.671Z,1.35
2022-10-05T15:18:07.166Z,1.21
2022-10-05T15:28:14.732Z,1.46
2022-10-05T15:38:22.724Z,1.23
2022-10-05T15:48:29.421Z,1.07
2022-10-05T15:58:37.111Z,1.24
2022-10-05T16:08:45.596Z,0.99
2022-10-05T16:18:52.839Z,1.3
2022-10-05T16:29:00.485Z,1.41
2022-10-05T16:39:08.373Z,1.07
2022-10-05T16:49:16.174Z,1.49
2022-10-05T16:59:25.225Z,1.47
2022-10-05T17:09:32.812Z,1.75
2022-10-05T17:19:40.508Z,1.39
2022-10-05T17:29:47.992Z,1.34
2022-10-05T17:39:56.881Z,1.48
2022-10-05T17:50:04.573Z,1.81
2022-10-05T18:00:13.163Z,2.21
2022-10-05T18:10:22.005Z,2.59
2022-10-05T18:20:29.936Z,2.68
2022-10-05T18:30:38.865Z,3.14
2022-10-05T18:40:46.544Z,1.93
2022-10-05T18:50:54.245Z,2.85
2022-10-05T19:01:02.066Z,3.08
2022-10-05T19:11:10.717Z,2.8
2022-10-05T19:21:18.421Z,2.42
2022-10-05T19:31:26.054Z,3.22
2022-10-05T19:41:33.615Z,3.77
2022-10-05T19:51:41.103Z,3.7
2022-10-05T20:01:48.712Z,3.41
2022-10-05T20:11:56.248Z,3.7
2022-10-05T20:22:04.009Z,3.85
2022-10-05T20:32:11.580Z,3.97
2022-10-05T20:42:19.302Z,4.35
2022-10-05T20:52:27.023Z,4.55
2022-10-05T21:02:35.267Z,4.76
2022-10-05T21:12:42.813Z,4.77
2022-10-05T21:22:50.419Z,4.92
2022-10-05T21:32:57.358Z,4.14
2022-10-05T21:43:05.262Z,3.38
2022-10-05T21:53:12.824Z,3.33
2022-10-05T22:03:20.567Z,3.02
2022-10-05T22:13:28.235Z,3.02
2022-10-05T22:23:38.357Z,3.09
2022-10-05T22:33:45.627Z,3.12
2022-10-05T22:43:54.621Z,3.18
2022-10-05T22:54:02.291Z,4.63
2022-10-05T23:04:09.782Z,4.71
2022-10-05T23:14:17.167Z,4.2
2022-10-05T23:24:24.649Z,3.37
2022-10-05T23:34:32.194Z,3.78
2022-10-05T23:44:39.819Z,3.7
2022-10-05T23:54:47.415Z,4.05
